createdAt,value
2019-05-03T00:02:41.000Z,78.37
2019-05-03T00:07:29.000Z,78.30
2019-05-03T00:12:17.000Z,78.52
2019-05-03T00:17:05.000Z,78.60
2019-05-03T00:21:54.000Z,78.74
2019-05-03T00:26:42.000Z,78.67
2019-05-03T00:31:30.000Z,78.95
2019-05-03T00:36:18.000Z,79.16
2019-05-03T00:41:06.000Z,79.03
2019-05-03T00:45:54.000Z,78.94
2019-05-03T00:50:43.000Z,78.74
2019-05-03T00:55:31.000Z,79.30
2019-05-03T01:00:21.000Z,79.86
2019-05-03T01:05:07.000Z,80.25
2019-05-03T01:09:55.000Z,80.30
2019-05-03T01:14:43.000Z,80.68
2019-05-03T01:19:31.000Z,81.13
2019-05-03T01:24:19.000Z,81.48
2019-05-03T01:29:07.000Z,81.50
2019-05-03T01:33:55.000Z,81.49
2019-05-03T01:38:43.000Z,81.71
2019-05-03T01:43:33.000Z,81.88
2019-05-03T01:48:20.000Z,82.11
2019-05-03T01:53:08.000Z,81.72
2019-05-03T01:57:56.000Z,81.84
2019-05-03T02:02:45.000Z,81.50
2019-05-03T02:07:32.000Z,81.05
2019-05-03T02:12:20.000Z,80.63
2019-05-03T02:17:08.000Z,80.13
2019-05-03T02:21:57.000Z,79.69
2019-05-03T02:26:44.000Z,79.38
2019-05-03T02:31:33.000Z,79.48
2019-05-03T02:36:21.000Z,80.30
2019-05-03T02:41:09.000Z,80.67
2019-05-03T02:45:59.000Z,81.34
2019-05-03T02:50:46.000Z,81.82
2019-05-03T02:55:34.000Z,81.74
2019-05-03T03:00:22.000Z,81.63
2019-05-03T03:05:10.000Z,81.70
2019-05-03T03:09:58.000Z,81.59
2019-05-03T03:14:46.000Z,81.58
2019-05-03T03:19:34.000Z,81.94
2019-05-03T03:24:22.000Z,82.48
2019-05-03T03:29:11.000Z,83.00
2019-05-03T03:33:58.000Z,83.55
2019-05-03T03:38:47.000Z,83.76
2019-05-03T03:43:35.000Z,83.34
2019-05-03T03:48:22.000Z,83.95
2019-05-03T03:53:11.000Z,84.42
2019-05-03T03:57:59.000Z,84.85
2019-05-03T04:02:47.000Z,84.72
2019-05-03T04:07:35.000Z,85.31
2019-05-03T04:12:22.000Z,86.08
2019-05-03T04:17:11.000Z,86.72
2019-05-03T04:21:59.000Z,86.99
2019-05-03T04:26:47.000Z,87.12
2019-05-03T04:31:35.000Z,87.58
2019-05-03T04:36:22.000Z,87.89
2019-05-03T04:41:10.000Z,87.81
2019-05-03T04:45:59.000Z,87.59
2019-05-03T04:50:49.000Z,87.62
2019-05-03T04:55:35.000Z,87.41
2019-05-03T05:00:25.000Z,87.41
2019-05-03T05:05:14.000Z,87.08
2019-05-03T05:10:01.000Z,86.94
2019-05-03T05:14:48.000Z,87.09
2019-05-03T05:19:36.000Z,87.30
2019-05-03T05:24:25.000Z,87.63
2019-05-03T05:29:13.000Z,88.21
2019-05-03T05:34:01.000Z,88.24
2019-05-03T05:38:49.000Z,88.10
2019-05-03T05:43:38.000Z,88.04
2019-05-03T05:48:25.000Z,87.99
2019-05-03T05:53:15.000Z,88.29
2019-05-03T05:58:00.000Z,88.64
2019-05-03T06:02:48.000Z,88.75
2019-05-03T06:07:37.000Z,88.74
2019-05-03T06:12:23.000Z,88.70
2019-05-03T06:17:11.000Z,88.69
2019-05-03T06:21:59.000Z,88.63
2019-05-03T06:26:47.000Z,88.50
2019-05-03T06:31:35.000Z,88.14
2019-05-03T06:36:23.000Z,87.50
2019-05-03T06:41:12.000Z,86.88
2019-05-03T06:46:01.000Z,86.26
2019-05-03T06:50:50.000Z,85.81
2019-05-03T06:55:38.000Z,84.86
2019-05-03T07:00:26.000Z,84.46
2019-05-03T07:05:14.000Z,84.26
2019-05-03T07:10:02.000Z,83.80
2019-05-03T07:14:52.000Z,82.93
2019-05-03T07:19:40.000Z,82.46
2019-05-03T07:24:27.000Z,82.18
2019-05-03T07:29:16.000Z,81.93
2019-05-03T07:34:04.000Z,81.34
2019-05-03T07:38:50.000Z,81.16
2019-05-03T07:43:38.000Z,81.08
2019-05-03T07:48:26.000Z,80.88
2019-05-03T07:53:15.000Z,80.84
2019-05-03T07:58:02.000Z,80.59
2019-05-03T08:02:50.000Z,80.46
2019-05-03T08:07:39.000Z,79.45
2019-05-03T08:12:27.000Z,78.54
2019-05-03T08:17:15.000Z,77.71
2019-05-03T08:22:04.000Z,76.96
2019-05-03T08:26:52.000Z,76.12
2019-05-03T08:31:40.000Z,75.92
2019-05-03T08:36:28.000Z,75.78
2019-05-03T08:41:16.000Z,75.47
2019-05-03T08:46:04.000Z,74.67
2019-05-03T08:50:53.000Z,74.32
2019-05-03T08:55:43.000Z,73.67
2019-05-03T09:00:32.000Z,70.11
2019-05-03T09:05:20.000Z,67.67
2019-05-03T09:10:08.000Z,65.26
2019-05-03T09:14:57.000Z,64.94
2019-05-03T09:19:44.000Z,65.54
2019-05-03T09:24:33.000Z,65.68
2019-05-03T09:29:22.000Z,65.00
2019-05-03T09:34:09.000Z,63.90
2019-05-03T09:38:56.000Z,64.06
2019-05-03T09:43:44.000Z,63.72
2019-05-03T09:48:33.000Z,63.86
2019-05-03T09:53:20.000Z,64.60
2019-05-03T09:58:09.000Z,66.53
2019-05-03T10:02:57.000Z,63.32
2019-05-03T10:07:45.000Z,62.88
2019-05-03T10:12:34.000Z,62.08
2019-05-03T10:17:23.000Z,61.07
2019-05-03T10:22:14.000Z,60.76
2019-05-03T10:27:05.000Z,54.82
2019-05-03T10:31:56.000Z,50.73
2019-05-03T10:36:46.000Z,45.25
2019-05-03T10:41:33.000Z,44.83
2019-05-03T10:46:19.000Z,45.40
2019-05-03T10:51:06.000Z,48.05
2019-05-03T10:55:53.000Z,48.08
2019-05-03T11:00:40.000Z,50.17
2019-05-03T11:05:27.000Z,51.99
2019-05-03T11:10:14.000Z,53.66
2019-05-03T11:15:01.000Z,55.32
2019-05-03T11:19:49.000Z,56.90
2019-05-03T11:24:37.000Z,57.76
2019-05-03T11:29:26.000Z,57.45
2019-05-03T11:34:17.000Z,55.69
2019-05-03T11:39:09.000Z,48.56
2019-05-03T11:43:56.000Z,46.65
2019-05-03T11:48:45.000Z,46.40
2019-05-03T11:53:32.000Z,46.67
2019-05-03T11:58:19.000Z,47.41
2019-05-03T12:03:06.000Z,48.92
2019-05-03T12:07:54.000Z,50.56
2019-05-03T12:12:41.000Z,51.20
2019-05-03T12:17:29.000Z,52.64
2019-05-03T12:22:16.000Z,53.62
2019-05-03T12:27:05.000Z,53.56
2019-05-03T12:31:53.000Z,52.80
2019-05-03T12:36:41.000Z,52.39
2019-05-03T12:41:30.000Z,52.82
2019-05-03T12:46:18.000Z,52.40
2019-05-03T12:51:07.000Z,52.58
2019-05-03T12:55:57.000Z,53.22
2019-05-03T13:00:46.000Z,49.52
2019-05-03T13:05:34.000Z,47.70
2019-05-03T13:08:35.000Z,47.36
2019-05-03T13:13:09.000Z,48.31
2019-05-03T13:17:57.000Z,49.14
2019-05-03T13:22:45.000Z,49.09
2019-05-03T13:27:33.000Z,49.17
2019-05-03T13:32:21.000Z,49.10
2019-05-03T13:37:08.000Z,49.78
2019-05-03T13:41:57.000Z,49.22
2019-05-03T13:46:45.000Z,48.99
2019-05-03T13:51:33.000Z,49.89
2019-05-03T13:56:21.000Z,50.48
2019-05-03T14:01:09.000Z,50.60
2019-05-03T14:05:57.000Z,50.46
2019-05-03T14:10:44.000Z,51.69
2019-05-03T14:15:32.000Z,52.18
2019-05-03T14:20:20.000Z,52.95
2019-05-03T14:25:09.000Z,53.25
2019-05-03T14:29:57.000Z,53.67
2019-05-03T14:34:45.000Z,53.96
2019-05-03T14:39:33.000Z,54.12
2019-05-03T14:44:20.000Z,54.91
2019-05-03T14:49:08.000Z,55.49
2019-05-03T14:53:56.000Z,55.73
2019-05-03T14:58:44.000Z,56.04
2019-05-03T15:03:32.000Z,56.29
2019-05-03T15:08:21.000Z,56.76
2019-05-03T15:13:09.000Z,56.87
2019-05-03T15:17:58.000Z,56.45
2019-05-03T15:22:46.000Z,55.99
2019-05-03T15:27:34.000Z,55.99
2019-05-03T15:32:23.000Z,56.51
2019-05-03T15:37:08.000Z,57.95
2019-05-03T15:41:56.000Z,59.71
2019-05-03T15:46:43.000Z,60.67
2019-05-03T15:51:41.000Z,61.38
2019-05-03T15:56:20.000Z,61.71
2019-05-03T16:01:07.000Z,62.58
2019-05-03T16:05:56.000Z,63.31
2019-05-03T16:10:44.000Z,63.29
2019-05-03T16:15:32.000Z,63.21
2019-05-03T16:20:20.000Z,63.22
2019-05-03T16:25:08.000Z,63.09
2019-05-03T16:29:56.000Z,63.19
2019-05-03T16:34:44.000Z,63.04
2019-05-03T16:39:33.000Z,63.08
2019-05-03T16:44:21.000Z,62.27
2019-05-03T16:49:09.000Z,61.86
2019-05-03T16:53:57.000Z,62.13
2019-05-03T16:58:45.000Z,62.57
2019-05-03T17:03:33.000Z,63.02
2019-05-03T17:08:20.000Z,62.68
2019-05-03T17:13:08.000Z,62.01
2019-05-03T17:17:56.000Z,62.04
2019-05-03T17:22:44.000Z,61.59
2019-05-03T17:27:32.000Z,61.54
2019-05-03T17:32:20.000Z,61.71
2019-05-03T17:37:08.000Z,62.08
2019-05-03T17:41:56.000Z,62.15
2019-05-03T17:46:44.000Z,62.46
2019-05-03T17:51:33.000Z,63.30
2019-05-03T17:56:20.000Z,63.88
2019-05-03T18:01:08.000Z,64.21
2019-05-03T18:05:56.000Z,64.45
2019-05-03T18:10:44.000Z,64.54
2019-05-03T18:15:32.000Z,65.40
2019-05-03T18:20:20.000Z,66.03
2019-05-03T18:25:08.000Z,66.10
2019-05-03T18:29:56.000Z,66.60
2019-05-03T18:34:47.000Z,66.71
2019-05-03T18:39:32.000Z,67.39
2019-05-03T18:44:18.000Z,67.44
2019-05-03T18:49:06.000Z,67.69
2019-05-03T18:53:54.000Z,68.26
2019-05-03T18:58:41.000Z,69.28
2019-05-03T19:03:29.000Z,69.36
2019-05-03T19:08:17.000Z,70.31
2019-05-03T19:13:04.000Z,70.51
2019-05-03T19:17:51.000Z,71.25
2019-05-03T19:22:38.000Z,71.65
2019-05-03T19:27:25.000Z,72.64
2019-05-03T19:32:13.000Z,73.64
2019-05-03T19:36:59.000Z,73.39
2019-05-03T19:41:48.000Z,72.18
2019-05-03T19:46:34.000Z,73.21
2019-05-03T19:51:21.000Z,74.56
2019-05-03T19:56:08.000Z,73.41
2019-05-03T20:00:56.000Z,74.44
2019-05-03T20:05:43.000Z,74.43
2019-05-03T20:10:30.000Z,75.02
2019-05-03T20:15:17.000Z,75.74
2019-05-03T20:20:05.000Z,76.87
2019-05-03T20:24:51.000Z,76.83
2019-05-03T20:29:38.000Z,76.76
2019-05-03T20:34:25.000Z,77.52
2019-05-03T20:39:12.000Z,77.55
2019-05-03T20:43:59.000Z,77.55
2019-05-03T20:48:46.000Z,77.35
2019-05-03T20:53:33.000Z,76.53
2019-05-03T20:58:20.000Z,77.45
2019-05-03T21:03:07.000Z,77.24
2019-05-03T21:07:54.000Z,77.54
2019-05-03T21:12:42.000Z,77.70
2019-05-03T21:17:30.000Z,77.40
2019-05-03T21:22:16.000Z,76.63
2019-05-03T21:27:03.000Z,77.98
2019-05-03T21:31:50.000Z,78.80
2019-05-03T21:36:37.000Z,78.82
2019-05-03T21:41:24.000Z,77.90
2019-05-03T21:46:11.000Z,78.85
2019-05-03T21:50:58.000Z,79.43
2019-05-03T21:55:46.000Z,79.79
2019-05-03T22:00:33.000Z,79.94
2019-05-03T22:05:20.000Z,80.61
2019-05-03T22:10:07.000Z,80.93
2019-05-03T22:14:54.000Z,81.30
2019-05-03T22:19:41.000Z,82.34
2019-05-03T22:24:28.000Z,82.60
2019-05-03T22:29:16.000Z,82.94
2019-05-03T22:34:02.000Z,82.84
2019-05-03T22:38:49.000Z,83.52
2019-05-03T22:43:37.000Z,83.36
2019-05-03T22:48:23.000Z,82.66
2019-05-03T22:53:12.000Z,82.10
2019-05-03T22:57:58.000Z,82.15
2019-05-03T23:02:45.000Z,82.83
2019-05-03T23:07:32.000Z,84.02
2019-05-03T23:12:20.000Z,85.11
2019-05-03T23:17:07.000Z,85.99
2019-05-03T23:21:54.000Z,86.08
2019-05-03T23:26:41.000Z,85.99
2019-05-03T23:31:28.000Z,85.75
2019-05-03T23:36:15.000Z,85.59
2019-05-03T23:41:02.000Z,85.30
2019-05-03T23:45:49.000Z,85.41
2019-05-03T23:50:37.000Z,85.39
2019-05-03T23:55:24.000Z,84.89
